Main page
METAR-TAF:

METAR-TAF

Airports :

Aurillac – Tronquières Airport

Aurillac, France

latitude: 44-53N, longitude: 002-25E, elevation: 639 m

Current weather observation

The report was made 42 minutes ago, at 06:00 UTC
Wind 3 kt from the East/Southeast
Temperature 13°C
Humidity 88%
Pressure 1026 hPa
Visibility 10 km or more
no clouds below 1500 m and no cumulonimbus

METAR: LFLW 150600Z AUTO 11003KT CAVOK 13/11 Q1026 NOSIG

Time: 08:42 (06:42 UTC)

Forecast

The report was made 1 hour and 42 minutes ago, at 05:00 UTC
Forecast valid from 15 at 06 UTC to 15 at 15 UTC
Wind 8 kt from the East/Southeast
Visibility 10 km or more
no clouds below 1500 m and no cumulonimbus

TAF: LFLW 150500Z 1506/1515 12008KT CAVOK

Weather observations and forecasts of more than 4000 airports (METAR and TAF reports).

The available stations are represented by yellow and red dots on the map.

Hover mouse over dot to see the name of the station.

Then click to see weather observations and forecasts.

To change the map : click on the green buttons with a black cross to zoom in, on the green button with a dash to zoom out, or on the green arrows for adjacent maps.


METAR-TAF: